KHKA/HKA METAR and TAF weather

Enter ICAO airport designator
Station Type Date Time Source
KHKA METAR 2019/06/26 15:53 UTC NOAA

KHKA 261553Z AUTO 21008KT 10SM FEW024 29/22 A3013 RMK AO2 SLP201 T02890217 $


Station Type Date Time Source
KHKA Decoded METAR 2019/06/26 15:53 UTC NOAA

BLYTHEVILLE MUNICIPAL AIRPORT , AR, United States (KHKA) 35-56N 89-50W 78M
Jun 26, 2019 - 11:53 AM EDT / 2019.06.26 1553 UTC
Wind: from the SSW (210 degrees) at 9 MPH (8 KT):0
Visibility: 10 mile(s):0
Sky conditions: mostly clear
Temperature: 84.0 F (28.9 C)
Dew Point: 71.1 F (21.7 C)
Relative Humidity: 65%
Pressure (altimeter): 30.13 in. Hg (1020 hPa)
ob: KHKA 261553Z AUTO 21008KT 10SM FEW024 29/22 A3013 RMK AO2 SLP201 T02890217
cycle: 16

Station Type Date Time Source
KHKA TAF UTC NOAA

Error!

Example: see airport list